Rechercher aéroport 
image banner adimage banner adimage banner ad
image banner ad

A28 - Fort Bidwell

Situé à Fort Bidwell, United States

ICAO - A28, IATA -

Données fournies par Airmate  

Information générale

Coordonnées: N41°52'35" W120°8'48"
Élévation : 4616 feet MSL.
Variation magnétique : 17° East
Voir autres Aéroports à California

Données opérationnelles

Special qualification required
Heure actuelle UTC:
Heure actuelle locale:
Météo à : KLKV - Lake County ( 38 km )
METAR: KLKV 300053Z AUTO 33005KT 10SM CLR 34/01 A3008 RMK AO2 SLP138 T03390006
Voir NOTAMs / SUP AIP / TFR affectant cet aéroport [VIEW]
Fréquences de communication: [VIEW]

Pistes:

Identifiant RWYQFULongueur (ft)Largeur (ft)SurfaceLDA (ft)
16181°366050OTHER
34366050OTHER

Coordonnées de l'aéroport

Adresse: Fort Bidwell United States

Vue satellite de A28